KC1DNY Weather Reports


Display with metric or nautical units.
time (UTC)temp
F
wind
direction
speed
MPH
gust
MPH
rain 1hr
in
rain 24hr
in
rain mn
in
humidity
%
barometer
mb
20221203200015 52 163 3.0 11.0 0.05 0.37 0.37 93 1008.6
20221203194510 52 117 3.0 9.0 0.05 0.36 0.36 93 1008.8
20221203193016 52 246 4.0 12.0 0.04 0.34 0.34 93 1009.1
20221203191510 51 108 2.0 17.0 0.05 0.33 0.33 93 1009.4
20221203190010 51 227 3.0 12.0 0.05 0.31 0.31 93 1009.5
20221203184510 51 116 4.0 16.0 0.07 0.31 0.31 93 1009.6
20221203183010 51 182 5.0 12.0 0.07 0.30 0.30 94 1009.9
20221203181510 51 194 6.0 14.0 0.06 0.28 0.28 94 1010.4
20221203180011 50 213 4.0 11.0 0.06 0.26 0.26 94 1010.6
20221203174511 50 144 5.0 14.0 0.06 0.24 0.24 94 1011.0
20221203173015 50 157 3.0 15.0 0.07 0.23 0.23 94 1011.6
20221203171510 49 164 5.0 13.0 0.07 0.22 0.22 94 1012.2
20221203170009 49 133 4.0 12.0 0.06 0.20 0.20 94 1012.8
20221203164510 49 184 4.0 14.0 0.06 0.18 0.18 94 1013.5
20221203163013 48 119 4.0 9.0 0.06 0.16 0.16 94 1014.0
20221203161510 48 212 3.0 11.0 0.07 0.15 0.15 94 1014.8
20221203160010 47 150 4.0 12.0 0.08 0.13 0.13 94 1015.4
20221203154510 47 148 2.0 9.0 0.09 0.12 0.12 94 1015.9
20221203153009 46 117 2.0 7.0 0.09 0.10 0.10 94 1016.7
20221203151510 46 128 2.0 6.0 0.08 0.08 0.08 94 1017.5
20221203150009 45 215 1.0 3.0 0.05 0.05 0.05 93 1018.0
20221203144514 44 0 0.0 4.0 0.03 0.03 0.03 93 1018.5
20221203143010 43 225 0.0 7.0 0.01 0.01 0.01 93 1018.9
20221203141511 43 206 2.0 5.0 0.00 0.00 0.00 92 1019.2
20221203140010 41 0 0.0 6.0 0.00 0.00 0.00 91 1019.4
20221203134510 40 0 1.0 6.0 0.00 0.00 0.00 90 1019.8
20221203133010 38 0 0.0 3.0 0.00 0.00 0.00 88 1020.2
20221203131513 37 121 0.0 2.0 0.00 0.00 0.00 87 1020.7
20221203130011 38 0 1.0 2.0 0.00 0.00 0.00 86 1020.6
20221203124512 38 0 0.0 2.0 0.00 0.00 0.00 86 1021.1
20221203123010 38 0 0.0 1.0 0.00 0.00 0.00 86 1021.6
20221203121510 38 0 0.0 2.0 0.00 0.00 0.00 86 1021.7
20221203120009 37 163 1.0 4.0 0.00 0.00 0.00 85 1022.1
20221203114512 38 0 1.0 5.0 0.00 0.00 0.00 85 1022.7
20221203113011 37 165 1.0 6.0 0.00 0.00 0.00 85 1022.9
20221203111510 37 182 1.0 4.0 0.00 0.00 0.00 85 1023.0
20221203110010 37 180 1.0 4.0 0.00 0.00 0.00 84 1023.5
20221203104510 38 0 0.0 5.0 0.00 0.00 0.00 82 1024.0
20221203103028 37 171 2.0 7.0 0.00 0.00 0.00 83 1024.3
20221203101514 37 225 2.0 7.0 0.00 0.00 0.00 83 1024.7
20221203100019 37 197 1.0 4.0 0.00 0.00 0.00 82 1025.0
20221203094512 37 200 1.0 5.0 0.00 0.00 0.00 82 1025.1
20221203093014 36 217 1.0 6.0 0.00 0.00 0.00 81 1025.1
20221203091534 36 229 2.0 6.0 0.00 0.00 0.00 82 1025.2
20221203090015 36 0 3.0 9.0 0.00 0.00 0.00 82 1025.3
20221203084514 35 113 2.0 6.0 0.00 0.00 0.00 83 1025.7
20221203083012 35 173 0.0 4.0 0.00 0.00 0.00 83 1025.8
20221203081517 35 202 2.0 7.0 0.00 0.00 0.00 84 1025.9
20221203080022 34 0 0.0 4.0 0.00 0.00 0.00 84 1026.3
20221203074514 35 191 1.0 5.0 0.00 0.00 0.00 83 1026.6
20221203073010 34 0 1.0 8.0 0.00 0.00 0.00 82 1026.8
20221203071510 34 0 1.0 5.0 0.00 0.00 0.00 81 1027.4
20221203070013 34 0 1.0 4.0 0.00 0.00 0.00 80 1027.8
20221203064515 34 123 1.0 3.0 0.00 0.00 0.00 79 1027.7
20221203063013 33 206 1.0 3.0 0.00 0.00 0.00 79 1027.7
20221203061511 33 197 1.0 4.0 0.00 0.00 0.00 79 1027.8
20221203060014 33 175 1.0 4.0 0.00 0.00 0.00 78 1028.0
20221203054514 33 255 1.0 3.0 0.00 0.00 0.00 80 1028.1
20221203053010 32 131 0.0 3.0 0.00 0.00 0.00 82 1028.2
20221203051511 31 171 1.0 2.0 0.00 0.00 0.00 81 1028.2
20221203050016 31 0 0.0 2.0 0.00 0.00 0.00 83 1028.4
20221203044509 31 126 0.0 2.0 0.00 0.00 0.00 82 1028.8
20221203043012 30 0 0.0 1.0 0.00 0.00 0.00 82 1029.0
20221203041512 31 0 0.0 2.0 0.00 0.00 0.00 81 1029.2
20221203040012 30 126 0.0 2.0 0.00 0.00 0.00 82 1029.3
20221203034510 32 0 0.0 1.0 0.00 0.00 0.00 79 1029.5
20221203033009 31 0 0.0 1.0 0.00 0.00 0.00 81 1029.6
20221203031513 30 0 0.0 1.0 0.00 0.00 0.00 82 1029.9
20221203030013 30 0 0.0 1.0 0.00 0.00 0.00 82 1030.0
20221203024510 30 0 0.0 2.0 0.00 0.00 0.00 83 1030.0
20221203023021 29 126 1.0 2.0 0.00 0.00 0.00 83 1030.3
20221203021510 29 0 0.0 2.0 0.00 0.00 0.00 83 1030.2
20221203020017 31 0 0.0 2.0 0.00 0.00 0.00 80 1030.4
20221203014512 31 160 0.0 2.0 0.00 0.00 0.00 79 1030.4
20221203013010 30 117 1.0 3.0 0.00 0.00 0.00 82 1030.5
20221203011510 30 117 0.0 2.0 0.00 0.00 0.00 82 1031.0
20221203010012 30 0 0.0 1.0 0.00 0.00 0.00 83 1031.2
20221203004513 30 0 0.0 1.0 0.00 0.00 0.00 79 1031.2
20221203003016 31 0 0.0 1.0 0.00 0.00 0.00 78 1031.2
20221203001512 30 0 0.0 1.0 0.00 0.00 0.00 79 1031.1
20221203000013 30 117 0.0 1.0 0.00 0.00 0.00 78 1031.1
20221202234514 30 0 0.0 2.0 0.00 0.00 0.00 80 1031.2
20221202233012 29 0 0.0 2.0 0.00 0.00 0.00 80 1031.2
20221202231513 29 120 0.0 1.0 0.00 0.00 0.00 80 1031.2
20221202230012 30 120 0.0 2.0 0.00 0.00 0.00 76 1031.4
20221202224512 31 0 0.0 1.0 0.00 0.00 0.00 73 1031.4
20221202223013 30 118 0.0 2.0 0.00 0.00 0.00 76 1031.4
20221202221513 32 0 0.0 2.0 0.00 0.00 0.00 71 1031.4
20221202220015 31 0 0.0 1.0 0.00 0.00 0.00 73 1031.1
20221202214512 31 129 0.0 2.0 0.00 0.00 0.00 72 1031.1
20221202213012 33 129 0.0 1.0 0.00 0.00 0.00 68 1031.1
20221202211518 33 132 1.0 4.0 0.00 0.00 0.00 66 1031.1
20221202210012 34 140 0.0 5.0 0.00 0.00 0.00 63 1031.1
20221202204514 35 108 1.0 6.0 0.00 0.00 0.00 58 1030.9
20221202203032 36 155 2.0 7.0 0.00 0.00 0.00 57 1030.8
20221202201511 36 136 3.0 8.0 0.00 0.00 0.00 55 1030.7